createdAt,value
2022-10-19T00:00:33.189Z,6.97
2022-10-19T00:02:37.202Z,9.60
2022-10-19T00:04:38.918Z,9.88
2022-10-19T00:06:40.599Z,11.60
2022-10-19T00:08:43.301Z,5.10
2022-10-19T00:10:45.071Z,7.25
2022-10-19T00:12:49.715Z,14.32
2022-10-19T00:14:51.509Z,9.82
2022-10-19T00:16:54.634Z,8.35
2022-10-19T00:18:58.053Z,9.25
2022-10-19T00:21:07.509Z,9.02
2022-10-19T00:23:09.163Z,10.63
2022-10-19T00:25:10.819Z,13.10
2022-10-19T00:27:12.604Z,9.05
2022-10-19T00:29:15.035Z,10.70
2022-10-19T00:31:18.148Z,9.20
2022-10-19T00:33:36.572Z,8.05
2022-10-19T00:35:41.416Z,11.63
2022-10-19T00:37:43.205Z,8.55
2022-10-19T00:39:44.901Z,13.75
2022-10-19T00:41:49.041Z,8.05
2022-10-19T00:44:02.752Z,7.50
2022-10-19T00:46:04.486Z,12.02
2022-10-19T00:48:07.063Z,11.05
2022-10-19T00:50:10.021Z,11.20
2022-10-19T00:52:16.467Z,6.97
2022-10-19T00:54:18.966Z,13.85
2022-10-19T00:56:20.765Z,10.93
2022-10-19T00:58:22.405Z,9.57
2022-10-19T01:00:24.214Z,13.23
2022-10-19T01:02:25.955Z,7.88
2022-10-19T01:04:29.518Z,9.90
2022-10-19T01:06:35.143Z,10.02
2022-10-19T01:08:36.863Z,13.52
2022-10-19T01:11:03.693Z,8.90
2022-10-19T01:13:15.512Z,10.63
2022-10-19T01:15:43.551Z,6.45
2022-10-19T01:17:56.624Z,7.32
2022-10-19T01:20:20.150Z,8.82
2022-10-19T01:23:02.314Z,7.00
2022-10-19T01:25:21.817Z,20.95
2022-10-19T01:27:32.728Z,8.80
2022-10-19T01:30:01.071Z,11.07
2022-10-19T01:32:08.909Z,12.30
2022-10-19T01:34:19.373Z,10.68
2022-10-19T01:36:35.838Z,4.60
2022-10-19T01:38:49.762Z,8.23
2022-10-19T01:41:00.367Z,12.73
2022-10-19T01:43:13.914Z,11.85
2022-10-19T01:45:18.064Z,11.10
2022-10-19T01:47:26.192Z,8.77
2022-10-19T01:49:56.406Z,7.22
2022-10-19T01:52:07.178Z,9.02
2022-10-19T01:56:17.485Z,16.35
2022-10-19T01:58:26.643Z,15.90
2022-10-19T02:00:29.743Z,8.95
2022-10-19T02:02:31.969Z,9.77
2022-10-19T02:04:35.499Z,8.32
2022-10-19T02:06:38.120Z,8.32
2022-10-19T02:08:49.571Z,12.00
2022-10-19T02:10:52.043Z,7.85
2022-10-19T02:12:55.530Z,11.52
2022-10-19T02:15:00.622Z,9.82
2022-10-19T02:17:04.847Z,10.02
2022-10-19T02:19:08.832Z,13.82
2022-10-19T02:21:10.760Z,10.70
2022-10-19T02:23:24.693Z,14.98
2022-10-19T02:25:26.803Z,12.23
2022-10-19T02:27:28.472Z,4.85
2022-10-19T02:29:30.651Z,10.25
2022-10-19T02:31:32.494Z,16.75
2022-10-19T02:33:34.278Z,11.07
2022-10-19T02:35:35.923Z,10.88
2022-10-19T02:37:37.963Z,8.70
2022-10-19T02:39:40.206Z,7.78
2022-10-19T02:42:00.054Z,9.55
2022-10-19T02:44:10.112Z,10.90
2022-10-19T02:46:23.380Z,13.67
2022-10-19T02:48:27.785Z,7.25
2022-10-19T02:50:29.514Z,14.50
2022-10-19T02:52:31.232Z,7.38
2022-10-19T02:54:33.187Z,6.93
2022-10-19T02:56:35.636Z,9.70
2022-10-19T02:58:37.309Z,9.65
2022-10-19T03:00:39.018Z,9.10
2022-10-19T03:02:40.715Z,11.15
2022-10-19T03:04:44.701Z,4.00
2022-10-19T03:06:46.564Z,10.57
2022-10-19T03:08:48.344Z,6.18
2022-10-19T03:10:49.945Z,11.02
2022-10-19T03:12:51.793Z,10.25
2022-10-19T03:14:53.667Z,18.38
2022-10-19T03:16:55.631Z,7.70
2022-10-19T03:18:57.290Z,8.43
2022-10-19T03:21:04.937Z,10.65
2022-10-19T03:23:06.615Z,8.40
2022-10-19T03:25:08.716Z,8.82
2022-10-19T03:27:10.392Z,11.75
2022-10-19T03:29:12.136Z,8.60
2022-10-19T03:31:13.815Z,10.23
2022-10-19T03:33:15.570Z,13.52
2022-10-19T03:35:17.409Z,6.95
2022-10-19T03:37:19.188Z,12.68
2022-10-19T03:39:21.001Z,13.63
2022-10-19T03:41:24.643Z,11.52
2022-10-19T03:43:26.307Z,8.60
2022-10-19T03:45:27.924Z,12.45
2022-10-19T03:47:29.587Z,6.47
2022-10-19T03:49:31.254Z,9.10
2022-10-19T03:51:33.881Z,10.05
2022-10-19T03:53:36.205Z,12.20
2022-10-19T03:55:37.869Z,8.60
2022-10-19T03:57:39.553Z,10.77
2022-10-19T03:59:41.301Z,4.90
2022-10-19T04:01:46.386Z,17.50
2022-10-19T04:03:48.184Z,12.43
2022-10-19T04:05:49.868Z,15.27
2022-10-19T04:07:51.735Z,14.05
2022-10-19T04:09:53.460Z,11.35
2022-10-19T04:11:55.176Z,12.80
2022-10-19T04:13:58.634Z,9.95
2022-10-19T04:16:01.035Z,9.80
2022-10-19T04:18:02.868Z,12.70
2022-10-19T04:20:04.988Z,12.50
2022-10-19T04:22:06.651Z,10.50
2022-10-19T04:24:17.063Z,19.58
2022-10-19T04:26:19.308Z,12.23
2022-10-19T04:28:21.120Z,14.68
2022-10-19T04:30:22.762Z,11.27
2022-10-19T04:32:24.429Z,15.23
2022-10-19T04:34:26.144Z,9.38
2022-10-19T04:36:27.925Z,9.02
2022-10-19T04:38:30.179Z,11.73
2022-10-19T04:40:35.496Z,15.77
2022-10-19T04:42:37.375Z,12.73
2022-10-19T04:44:39.664Z,8.52
2022-10-19T04:46:41.437Z,9.38
2022-10-19T04:48:44.074Z,12.77
2022-10-19T04:50:45.790Z,14.85
2022-10-19T04:52:47.419Z,16.95
2022-10-19T04:54:49.216Z,13.88
2022-10-19T04:57:00.588Z,10.25
2022-10-19T04:59:02.295Z,8.38
2022-10-19T05:01:12.716Z,15.18
2022-10-19T05:03:14.890Z,17.63
2022-10-19T05:05:16.583Z,19.73
2022-10-19T05:07:18.382Z,12.25
2022-10-19T05:09:20.050Z,13.18
2022-10-19T05:11:21.846Z,19.98
2022-10-19T05:13:23.561Z,11.00
2022-10-19T05:15:25.301Z,20.30
2022-10-19T05:17:31.099Z,16.63
2022-10-19T05:19:32.808Z,13.32
2022-10-19T05:21:34.461Z,11.20
2022-10-19T05:23:36.478Z,9.95
2022-10-19T05:25:38.144Z,13.88
2022-10-19T05:27:39.812Z,14.52
2022-10-19T05:29:41.462Z,11.30
2022-10-19T05:31:43.140Z,9.55
2022-10-19T05:33:45.377Z,16.10
2022-10-19T05:35:47.120Z,10.95
2022-10-19T05:37:48.787Z,10.40
2022-10-19T05:39:50.461Z,13.30
2022-10-19T05:41:52.112Z,11.70
2022-10-19T05:43:56.037Z,18.00
2022-10-19T05:45:57.691Z,14.05
2022-10-19T05:47:59.610Z,11.32
2022-10-19T05:50:01.286Z,16.45
2022-10-19T05:52:03.091Z,17.50
2022-10-19T05:54:05.020Z,12.77
2022-10-19T05:56:08.648Z,14.63
2022-10-19T05:58:10.289Z,16.05
2022-10-19T06:00:12.498Z,18.98
2022-10-19T06:02:14.524Z,11.65
2022-10-19T06:06:19.602Z,12.15
2022-10-19T06:08:23.007Z,12.50
2022-10-19T06:10:24.724Z,13.27
2022-10-19T06:12:26.394Z,17.73
2022-10-19T06:14:28.164Z,16.02
2022-10-19T06:16:31.421Z,16.30
2022-10-19T06:18:33.278Z,14.75
2022-10-19T06:20:36.500Z,13.23
2022-10-19T06:22:38.142Z,14.05
2022-10-19T06:24:39.784Z,16.48
2022-10-19T06:26:41.764Z,14.98
2022-10-19T06:28:44.902Z,10.02
2022-10-19T06:30:46.745Z,11.85
2022-10-19T06:32:48.566Z,9.90
2022-10-19T06:34:53.059Z,17.15
2022-10-19T06:37:03.688Z,16.48
2022-10-19T06:39:05.296Z,16.13
2022-10-19T06:41:08.837Z,16.42
2022-10-19T06:43:10.634Z,15.10
2022-10-19T06:45:13.113Z,14.95
2022-10-19T06:47:14.739Z,16.98
2022-10-19T06:49:16.375Z,15.77
2022-10-19T06:51:18.632Z,13.48
2022-10-19T06:53:20.415Z,18.95
2022-10-19T06:55:22.114Z,14.57
2022-10-19T06:57:24.263Z,15.15
2022-10-19T06:59:25.977Z,24.17
2022-10-19T07:01:28.226Z,21.55
2022-10-19T07:03:30.949Z,19.40
2022-10-19T07:05:32.728Z,15.13
2022-10-19T07:07:35.270Z,21.48
2022-10-19T07:09:37.265Z,22.13
2022-10-19T07:11:45.540Z,17.48
2022-10-19T07:13:47.919Z,16.73
2022-10-19T07:15:50.075Z,23.05
2022-10-19T07:17:53.117Z,17.98
2022-10-19T07:19:58.747Z,17.17
2022-10-19T07:22:00.538Z,19.23
2022-10-19T07:24:02.489Z,15.50
2022-10-19T07:26:12.033Z,15.32
2022-10-19T07:28:26.989Z,17.08
2022-10-19T07:30:28.864Z,21.88
2022-10-19T07:32:30.492Z,19.63
2022-10-19T07:34:32.411Z,24.33
2022-10-19T07:36:35.858Z,14.20
2022-10-19T07:38:37.670Z,25.98
2022-10-19T07:40:42.419Z,17.45
2022-10-19T07:42:46.437Z,16.95
2022-10-19T07:44:48.127Z,14.30
2022-10-19T07:46:50.472Z,16.10
2022-10-19T07:48:52.392Z,17.05
2022-10-19T07:50:54.101Z,18.05
2022-10-19T07:52:55.897Z,24.05
2022-10-19T07:54:57.694Z,24.77
2022-10-19T07:57:01.655Z,19.02
2022-10-19T07:59:05.111Z,15.82
2022-10-19T08:01:15.782Z,17.25
2022-10-19T08:05:39.235Z,23.67
2022-10-19T08:07:40.885Z,24.25
2022-10-19T08:09:57.793Z,23.33
2022-10-19T08:11:59.691Z,18.20
2022-10-19T08:14:03.175Z,17.02
2022-10-19T08:16:05.846Z,18.67
2022-10-19T08:18:07.567Z,21.63
2022-10-19T08:20:09.739Z,19.38
2022-10-19T08:22:11.425Z,16.63
2022-10-19T08:24:14.992Z,17.85
2022-10-19T08:26:16.621Z,14.82
2022-10-19T08:28:18.478Z,18.02
2022-10-19T08:30:20.207Z,16.92
2022-10-19T08:32:21.915Z,14.25
2022-10-19T08:34:23.571Z,14.65
2022-10-19T08:36:26.135Z,17.05
2022-10-19T08:38:27.880Z,15.60
2022-10-19T08:40:31.305Z,10.45
2022-10-19T08:42:42.284Z,18.75
2022-10-19T08:45:03.778Z,18.33
2022-10-19T08:47:32.961Z,24.85
2022-10-19T08:49:35.366Z,19.58
2022-10-19T08:51:40.666Z,22.40
2022-10-19T08:54:12.209Z,18.30
2022-10-19T08:56:55.575Z,22.63
2022-10-19T08:59:10.026Z,20.48
2022-10-19T09:01:18.235Z,19.60
2022-10-19T09:03:37.519Z,22.90
2022-10-19T09:06:22.241Z,16.88
2022-10-19T09:08:23.987Z,17.20
2022-10-19T09:10:30.262Z,28.65
2022-10-19T09:12:41.184Z,15.00
2022-10-19T09:14:57.946Z,21.40
2022-10-19T09:17:17.240Z,19.00
2022-10-19T09:19:26.121Z,13.15
2022-10-19T09:21:51.960Z,17.90
2022-10-19T09:24:21.293Z,20.55
2022-10-19T09:26:28.162Z,22.27
2022-10-19T09:28:39.693Z,17.52
2022-10-19T09:30:45.810Z,13.45
2022-10-19T09:32:51.436Z,20.80
2022-10-19T09:34:56.748Z,20.33
2022-10-19T09:37:21.229Z,17.05
2022-10-19T09:39:29.470Z,16.33
2022-10-19T09:41:31.991Z,15.52
2022-10-19T09:43:34.331Z,24.70
2022-10-19T09:45:51.498Z,15.70
2022-10-19T09:47:53.550Z,18.35
2022-10-19T09:50:26.853Z,19.75
2022-10-19T09:52:39.883Z,17.65
2022-10-19T09:54:41.648Z,12.80
2022-10-19T09:56:53.487Z,15.05
2022-10-19T09:58:59.239Z,23.48
2022-10-19T10:01:03.058Z,16.13
2022-10-19T10:03:06.234Z,32.40
2022-10-19T10:05:15.173Z,21.30
2022-10-19T10:07:18.843Z,28.88
2022-10-19T10:09:29.202Z,17.20
2022-10-19T10:11:34.485Z,17.90
2022-10-19T10:13:38.683Z,14.50
2022-10-19T10:15:48.467Z,21.30
2022-10-19T10:17:51.316Z,16.52
2022-10-19T10:19:59.036Z,20.42
2022-10-19T10:22:00.766Z,23.83
2022-10-19T10:24:17.754Z,22.70
2022-10-19T10:26:20.807Z,18.83
2022-10-19T10:28:27.674Z,17.23
2022-10-19T10:30:35.247Z,18.83
2022-10-19T10:32:39.023Z,18.02
2022-10-19T10:34:51.915Z,17.15
2022-10-19T10:37:11.704Z,15.38
2022-10-19T10:39:17.461Z,22.40
2022-10-19T10:41:23.643Z,21.33
2022-10-19T10:43:31.681Z,22.42
2022-10-19T10:45:39.755Z,22.38
2022-10-19T10:47:48.301Z,11.18
2022-10-19T10:50:16.788Z,16.70
2022-10-19T10:52:19.657Z,35.60
2022-10-19T10:54:26.647Z,19.77
2022-10-19T10:56:30.222Z,19.58
2022-10-19T10:58:59.871Z,20.60
2022-10-19T11:01:08.209Z,21.45
2022-10-19T11:03:25.174Z,19.77
2022-10-19T11:05:31.317Z,22.27
2022-10-19T11:07:36.012Z,17.00
2022-10-19T11:09:51.050Z,32.25
2022-10-19T11:11:56.194Z,18.10
2022-10-19T11:14:20.124Z,17.40
2022-10-19T11:16:39.980Z,20.60
2022-10-19T11:18:46.606Z,17.10
2022-10-19T11:21:00.039Z,22.23
2022-10-19T11:23:07.720Z,19.35
2022-10-19T11:25:15.327Z,20.85
2022-10-19T11:27:51.805Z,13.20
2022-10-19T11:30:22.901Z,18.73
2022-10-19T11:32:24.539Z,14.43
2022-10-19T11:34:50.810Z,24.95
2022-10-19T11:37:10.845Z,21.75
2022-10-19T11:39:52.343Z,13.63
2022-10-19T11:41:56.762Z,12.82
2022-10-19T11:44:25.824Z,12.50
2022-10-19T11:46:42.464Z,19.17
2022-10-19T11:49:25.690Z,13.43
2022-10-19T11:51:39.726Z,21.52
2022-10-19T11:54:03.232Z,16.73
2022-10-19T11:56:39.133Z,19.80
2022-10-19T11:59:10.646Z,15.68
2022-10-19T12:01:23.574Z,14.82
2022-10-19T12:03:31.090Z,16.08
2022-10-19T12:05:38.573Z,19.73
2022-10-19T12:07:40.125Z,18.25
2022-10-19T12:09:52.436Z,15.68
2022-10-19T12:12:17.025Z,21.48
2022-10-19T12:14:25.205Z,20.73
2022-10-19T12:16:37.762Z,16.88
2022-10-19T12:18:48.270Z,16.35
2022-10-19T12:20:53.661Z,22.55
2022-10-19T12:22:58.254Z,18.40
2022-10-19T12:25:02.547Z,19.85
2022-10-19T12:27:11.242Z,16.23
2022-10-19T12:29:17.863Z,19.05
2022-10-19T12:31:19.916Z,20.73
2022-10-19T12:33:53.819Z,15.50
2022-10-19T12:36:15.644Z,19.40
2022-10-19T12:38:45.971Z,21.83
2022-10-19T12:41:00.318Z,20.05
2022-10-19T12:43:17.203Z,16.58
2022-10-19T12:45:31.645Z,16.15
2022-10-19T12:47:33.732Z,16.95
2022-10-19T12:49:43.262Z,16.38
2022-10-19T12:51:46.643Z,21.10
2022-10-19T12:53:49.325Z,19.40
2022-10-19T12:56:08.194Z,17.65
2022-10-19T12:58:21.719Z,20.55
2022-10-19T13:00:26.321Z,20.88
2022-10-19T13:04:53.452Z,21.73
2022-10-19T13:07:05.918Z,13.95
2022-10-19T13:09:19.979Z,16.05
2022-10-19T13:11:22.678Z,16.77
2022-10-19T13:13:54.899Z,11.60
2022-10-19T13:15:56.589Z,15.77
2022-10-19T13:18:04.932Z,16.02
2022-10-19T13:20:16.545Z,21.00
2022-10-19T13:22:28.025Z,19.27
2022-10-19T13:24:29.837Z,14.40
2022-10-19T13:26:34.799Z,15.50
2022-10-19T13:28:38.293Z,17.17
2022-10-19T13:30:41.906Z,19.65
2022-10-19T13:32:45.261Z,17.42
2022-10-19T13:34:47.489Z,10.35
2022-10-19T13:37:12.627Z,17.08
2022-10-19T13:39:15.836Z,16.10
2022-10-19T13:41:39.178Z,15.80
2022-10-19T13:44:06.884Z,19.10
2022-10-19T13:46:36.064Z,16.27
2022-10-19T13:48:53.557Z,14.20
2022-10-19T13:51:08.252Z,12.68
2022-10-19T13:53:30.684Z,11.15
2022-10-19T13:56:20.837Z,15.45
2022-10-19T13:58:40.694Z,15.40
2022-10-19T14:01:05.126Z,19.98
2022-10-19T14:03:14.317Z,16.92
2022-10-19T14:05:45.205Z,16.25
2022-10-19T14:10:22.731Z,14.20
2022-10-19T14:12:34.135Z,13.50
2022-10-19T14:14:43.500Z,18.33
2022-10-19T14:17:08.964Z,16.45
2022-10-19T14:19:14.189Z,12.05
2022-10-19T14:21:28.466Z,13.20
2022-10-19T14:23:33.275Z,14.55
2022-10-19T14:25:34.987Z,10.85
2022-10-19T14:27:37.086Z,23.33
2022-10-19T14:29:53.413Z,14.93
2022-10-19T14:31:55.213Z,12.57
2022-10-19T14:34:02.281Z,15.55
2022-10-19T14:36:05.515Z,16.27
2022-10-19T14:38:09.336Z,10.38
2022-10-19T14:40:16.839Z,18.00
2022-10-19T14:42:18.471Z,17.20
2022-10-19T14:44:40.158Z,14.63
2022-10-19T14:46:47.780Z,16.05
2022-10-19T14:48:51.287Z,14.57
2022-10-19T14:50:57.503Z,12.57
2022-10-19T14:53:07.527Z,21.58
2022-10-19T14:55:17.811Z,22.70
2022-10-19T14:57:33.615Z,10.25
2022-10-19T14:59:46.349Z,15.80
2022-10-19T15:01:54.481Z,16.02
2022-10-19T15:03:56.617Z,15.18
2022-10-19T15:06:07.052Z,13.50
2022-10-19T15:08:11.406Z,12.55
2022-10-19T15:10:23.165Z,13.75
2022-10-19T15:12:35.556Z,14.82
2022-10-19T15:14:38.530Z,13.52
2022-10-19T15:16:49.259Z,15.27
2022-10-19T15:21:20.725Z,24.73
2022-10-19T15:23:51.671Z,15.63
2022-10-19T15:26:00.902Z,18.17
2022-10-19T15:28:41.666Z,15.82
2022-10-19T15:32:50.792Z,19.75
2022-10-19T15:34:52.498Z,19.08
2022-10-19T15:37:08.360Z,19.67
2022-10-19T15:39:32.897Z,22.17
2022-10-19T15:41:40.630Z,19.80
2022-10-19T15:43:48.450Z,16.70
2022-10-19T15:46:01.158Z,16.45
2022-10-19T15:48:27.493Z,17.70
2022-10-19T15:50:40.459Z,17.98
2022-10-19T15:52:42.082Z,17.80
2022-10-19T15:54:47.117Z,14.65
2022-10-19T15:57:01.499Z,15.63
2022-10-19T15:59:19.113Z,17.83
2022-10-19T16:01:26.583Z,11.95
2022-10-19T16:03:28.298Z,20.88
2022-10-19T16:05:30.644Z,18.52
2022-10-19T16:07:36.348Z,21.95
2022-10-19T16:09:38.188Z,15.85
2022-10-19T16:11:39.886Z,20.50
2022-10-19T16:13:42.232Z,18.67
2022-10-19T16:15:43.854Z,15.57
2022-10-19T16:17:48.573Z,13.57
2022-10-19T16:19:50.623Z,15.35
2022-10-19T16:21:52.505Z,19.65
2022-10-19T16:23:54.279Z,18.05
2022-10-19T16:25:56.352Z,22.45
2022-10-19T16:27:57.999Z,16.67
2022-10-19T16:29:59.620Z,21.45
2022-10-19T16:32:01.546Z,11.80
2022-10-19T16:34:03.173Z,17.70
2022-10-19T16:36:08.636Z,17.88
2022-10-19T16:38:10.632Z,17.88
2022-10-19T16:40:12.349Z,14.50
2022-10-19T16:42:15.129Z,12.73
2022-10-19T16:44:17.057Z,16.75
2022-10-19T16:46:21.565Z,20.30
2022-10-19T16:48:24.351Z,23.05
2022-10-19T16:50:26.041Z,21.55
2022-10-19T16:52:29.000Z,19.80
2022-10-19T16:54:30.714Z,30.70
2022-10-19T16:56:33.125Z,15.82
2022-10-19T16:58:41.566Z,16.27
2022-10-19T17:00:43.256Z,17.73
2022-10-19T17:02:46.506Z,19.45
2022-10-19T17:04:48.503Z,21.73
2022-10-19T17:07:00.059Z,18.17
2022-10-19T17:11:26.641Z,16.67
2022-10-19T17:13:28.284Z,16.42
2022-10-19T17:15:42.606Z,12.13
2022-10-19T17:17:44.849Z,20.92
2022-10-19T17:19:46.863Z,15.98
2022-10-19T17:21:49.533Z,19.52
2022-10-19T17:23:53.043Z,15.25
2022-10-19T17:25:54.679Z,20.15
2022-10-19T17:27:56.352Z,28.17
2022-10-19T17:29:57.973Z,22.38
2022-10-19T17:31:59.917Z,18.50
2022-10-19T17:34:02.220Z,13.73
2022-10-19T17:36:13.382Z,17.30
2022-10-19T17:38:15.874Z,21.95
2022-10-19T17:40:17.720Z,24.10
2022-10-19T17:42:19.398Z,32.45
2022-10-19T17:44:22.153Z,22.67
2022-10-19T17:46:26.583Z,17.00
2022-10-19T17:48:29.293Z,20.23
2022-10-19T17:50:30.959Z,17.30
2022-10-19T17:52:34.065Z,22.05
2022-10-19T17:54:43.612Z,25.88
2022-10-19T17:57:01.547Z,20.33
2022-10-19T17:59:04.852Z,18.05
2022-10-19T18:01:07.626Z,29.15
2022-10-19T18:03:09.477Z,17.92
2022-10-19T18:05:11.309Z,21.17
2022-10-19T18:07:12.961Z,24.92
2022-10-19T18:09:15.238Z,32.38
2022-10-19T18:11:23.217Z,26.08
2022-10-19T18:13:25.392Z,25.77
2022-10-19T18:15:27.073Z,20.55
2022-10-19T18:17:28.742Z,19.63
2022-10-19T18:19:30.361Z,18.45
2022-10-19T18:21:35.800Z,19.23
2022-10-19T18:23:38.726Z,22.45
2022-10-19T18:25:53.525Z,29.58
2022-10-19T18:27:55.843Z,27.98
2022-10-19T18:29:57.500Z,19.67
2022-10-19T18:31:59.265Z,19.83
2022-10-19T18:34:03.445Z,16.42
2022-10-19T18:36:07.300Z,28.25
2022-10-19T18:38:09.000Z,24.17
2022-10-19T18:40:12.038Z,24.23
2022-10-19T18:42:13.828Z,21.83
2022-10-19T18:44:15.506Z,19.35
2022-10-19T18:46:18.892Z,18.98
2022-10-19T18:48:21.602Z,22.13
2022-10-19T18:50:23.293Z,18.73
2022-10-19T18:52:24.959Z,20.05
2022-10-19T18:54:28.054Z,28.23
2022-10-19T18:56:29.861Z,23.35
2022-10-19T18:58:32.275Z,26.38
2022-10-19T19:00:35.062Z,24.38
2022-10-19T19:02:46.460Z,23.05
2022-10-19T19:04:48.844Z,28.13
2022-10-19T19:07:08.817Z,25.17
2022-10-19T19:09:12.362Z,23.70
2022-10-19T19:11:24.516Z,26.50
2022-10-19T19:13:26.988Z,25.40
2022-10-19T19:15:28.598Z,26.80
2022-10-19T19:17:30.204Z,30.42
2022-10-19T19:19:31.891Z,24.30
2022-10-19T19:21:34.999Z,29.40
2022-10-19T19:23:36.609Z,23.48
2022-10-19T19:26:03.545Z,24.80
2022-10-19T19:28:05.254Z,26.25
2022-10-19T19:30:07.659Z,31.50
2022-10-19T19:32:09.611Z,28.33
2022-10-19T19:34:12.169Z,19.20
2022-10-19T19:36:16.848Z,26.17
2022-10-19T19:38:18.705Z,28.95
2022-10-19T19:40:20.319Z,25.90
2022-10-19T19:42:25.657Z,27.40
2022-10-19T19:44:29.960Z,23.58
2022-10-19T19:46:32.377Z,32.10
2022-10-19T19:48:34.257Z,29.30
2022-10-19T19:50:37.703Z,35.85
2022-10-19T19:52:40.607Z,23.35
2022-10-19T19:54:42.468Z,33.17
2022-10-19T19:56:44.446Z,29.23
2022-10-19T19:58:46.569Z,30.67
2022-10-19T20:00:48.415Z,22.98
2022-10-19T20:02:54.626Z,29.88
2022-10-19T20:04:56.424Z,25.50
2022-10-19T20:07:15.306Z,26.38
2022-10-19T20:09:17.144Z,26.98
2022-10-19T20:11:19.288Z,28.98
2022-10-19T20:13:21.077Z,28.27
2022-10-19T20:15:22.797Z,23.55
2022-10-19T20:17:25.184Z,26.33
2022-10-19T20:19:26.843Z,29.33
2022-10-19T20:21:28.554Z,26.95
2022-10-19T20:23:30.364Z,26.60
2022-10-19T20:25:32.608Z,28.73
2022-10-19T20:27:35.167Z,29.25
2022-10-19T20:29:37.191Z,25.65
2022-10-19T20:31:40.146Z,29.35
2022-10-19T20:33:43.743Z,29.02
2022-10-19T20:35:45.442Z,28.50
2022-10-19T20:37:53.002Z,26.17
2022-10-19T20:39:54.628Z,22.20
2022-10-19T20:41:56.323Z,23.40
2022-10-19T20:43:58.054Z,25.70
2022-10-19T20:46:12.937Z,24.42
2022-10-19T20:48:14.650Z,22.45
2022-10-19T20:50:19.250Z,22.90
2022-10-19T20:52:23.564Z,27.15
2022-10-19T20:54:25.679Z,21.33
2022-10-19T20:56:30.411Z,30.33
2022-10-19T20:58:32.611Z,23.23
2022-10-19T21:00:34.258Z,24.30
2022-10-19T21:02:36.140Z,26.02
2022-10-19T21:04:38.281Z,31.25
2022-10-19T21:06:43.626Z,33.42
2022-10-19T21:08:45.468Z,22.30
2022-10-19T21:10:47.287Z,24.45
2022-10-19T21:12:48.982Z,26.48
2022-10-19T21:14:50.629Z,28.90
2022-10-19T21:17:00.338Z,41.22
2022-10-19T21:19:03.924Z,33.38
2022-10-19T21:21:17.910Z,30.73
2022-10-19T21:23:19.615Z,29.35
2022-10-19T21:25:21.348Z,31.73
2022-10-19T21:27:23.163Z,29.23
2022-10-19T21:29:24.917Z,23.63
2022-10-19T21:31:28.287Z,25.60
2022-10-19T21:33:30.869Z,30.95
2022-10-19T21:35:36.498Z,30.05
2022-10-19T21:37:38.761Z,26.05
2022-10-19T21:39:40.746Z,28.60
2022-10-19T21:41:42.411Z,22.58
2022-10-19T21:43:44.528Z,24.00
2022-10-19T21:45:46.651Z,28.58
2022-10-19T21:47:48.296Z,25.33
2022-10-19T21:49:50.168Z,24.27
2022-10-19T21:51:57.274Z,29.92
2022-10-19T21:53:59.686Z,20.67
2022-10-19T21:56:01.841Z,32.00
2022-10-19T21:58:05.644Z,25.70
2022-10-19T22:00:07.734Z,24.17
2022-10-19T22:02:09.416Z,23.83
2022-10-19T22:04:16.283Z,23.40
2022-10-19T22:06:17.902Z,20.52
2022-10-19T22:08:20.161Z,25.60
2022-10-19T22:10:22.672Z,21.20
2022-10-19T22:12:24.514Z,32.60
2022-10-19T22:14:27.101Z,27.08
2022-10-19T22:16:30.323Z,27.55
2022-10-19T22:18:32.348Z,19.42
2022-10-19T22:20:39.252Z,20.63
2022-10-19T22:22:40.833Z,26.88
2022-10-19T22:24:42.424Z,23.75
2022-10-19T22:26:59.615Z,27.67
2022-10-19T22:29:02.455Z,27.13
2022-10-19T22:31:04.103Z,21.63
2022-10-19T22:33:05.740Z,24.30
2022-10-19T22:35:07.589Z,25.10
2022-10-19T22:37:09.175Z,31.95
2022-10-19T22:39:11.306Z,25.10
2022-10-19T22:42:09.435Z,19.63
2022-10-19T22:44:11.192Z,18.45
2022-10-19T22:46:12.793Z,25.60
2022-10-19T22:48:15.459Z,27.98
2022-10-19T22:50:17.143Z,25.20
2022-10-19T22:52:18.837Z,27.73
2022-10-19T22:54:20.568Z,28.02
2022-10-19T22:56:22.254Z,24.63
2022-10-19T22:58:23.928Z,23.05
2022-10-19T23:00:25.679Z,27.63
2022-10-19T23:02:29.053Z,24.55
2022-10-19T23:04:30.854Z,35.40
2022-10-19T23:06:32.864Z,23.83
2022-10-19T23:08:34.680Z,26.77
2022-10-19T23:10:36.457Z,22.58
2022-10-19T23:12:38.077Z,23.40
2022-10-19T23:14:39.670Z,30.45
2022-10-19T23:16:41.431Z,29.67
2022-10-19T23:18:43.162Z,28.92
2022-10-19T23:20:56.281Z,28.38
2022-10-19T23:22:57.923Z,17.70
2022-10-19T23:24:59.879Z,26.13
2022-10-19T23:27:01.624Z,28.77
2022-10-19T23:29:18.448Z,23.05
2022-10-19T23:31:26.600Z,27.83
2022-10-19T23:33:28.239Z,26.63
2022-10-19T23:35:29.814Z,25.83
2022-10-19T23:37:31.486Z,23.73
2022-10-19T23:39:33.066Z,26.55
2022-10-19T23:41:34.705Z,23.80
2022-10-19T23:45:45.104Z,28.50
2022-10-19T23:47:46.773Z,22.95
2022-10-19T23:49:48.368Z,26.85
2022-10-19T23:51:49.981Z,24.23
2022-10-19T23:53:53.315Z,32.55
2022-10-19T23:56:02.787Z,30.88
2022-10-19T23:58:04.541Z,26.33
